createdAt,value
2022-08-26T00:00:43.360Z,19.36
2022-08-26T00:03:16.653Z,19.39
2022-08-26T00:05:51.245Z,19.43
2022-08-26T00:08:24.712Z,19.46
2022-08-26T00:10:55.100Z,19.51
2022-08-26T00:13:28.272Z,19.49
2022-08-26T00:16:01.809Z,19.56
2022-08-26T00:18:38.689Z,19.62
2022-08-26T00:21:13.308Z,19.59
2022-08-26T00:23:45.722Z,19.66
2022-08-26T00:26:18.441Z,19.69
2022-08-26T00:28:50.980Z,19.70
2022-08-26T00:31:23.370Z,19.60
2022-08-26T00:33:56.619Z,19.44
2022-08-26T00:36:29.737Z,19.38
2022-08-26T00:39:02.252Z,19.36
2022-08-26T00:41:34.771Z,19.19
2022-08-26T00:44:08.309Z,19.02
2022-08-26T00:46:46.814Z,18.86
2022-08-26T00:49:24.011Z,18.75
2022-08-26T00:51:59.006Z,18.58
2022-08-26T00:54:36.331Z,18.44
2022-08-26T00:57:15.898Z,18.32
2022-08-26T00:59:52.239Z,18.27
2022-08-26T01:02:25.038Z,18.26
2022-08-26T01:05:01.444Z,18.28
2022-08-26T01:07:37.311Z,18.27
2022-08-26T01:10:14.399Z,18.28
2022-08-26T01:12:52.319Z,18.26
2022-08-26T01:15:32.961Z,18.23
2022-08-26T01:18:07.811Z,18.20
2022-08-26T01:20:47.887Z,18.20
2022-08-26T01:23:21.706Z,18.15
2022-08-26T01:26:02.128Z,18.09
2022-08-26T01:28:51.662Z,17.94
2022-08-26T01:31:27.486Z,17.83
2022-08-26T01:34:11.117Z,17.73
2022-08-26T01:36:46.904Z,17.62
2022-08-26T01:39:23.221Z,17.56
2022-08-26T01:41:58.449Z,17.54
2022-08-26T01:44:42.441Z,17.49
2022-08-26T01:47:18.431Z,17.49
2022-08-26T01:49:54.469Z,17.47
2022-08-26T01:52:29.861Z,17.46
2022-08-26T01:55:02.861Z,17.45
2022-08-26T01:57:35.961Z,17.45
2022-08-26T02:00:13.530Z,17.47
2022-08-26T02:02:51.489Z,17.47
2022-08-26T02:05:25.298Z,17.48
2022-08-26T02:07:57.672Z,17.43
2022-08-26T02:10:30.598Z,17.40
2022-08-26T02:13:03.340Z,17.38
2022-08-26T02:15:36.319Z,17.38
2022-08-26T02:18:14.013Z,17.36
2022-08-26T02:20:46.781Z,17.35
2022-08-26T02:23:24.465Z,17.32
2022-08-26T02:26:02.439Z,17.26
2022-08-26T02:28:40.319Z,17.22
2022-08-26T02:31:12.940Z,17.22
2022-08-26T02:33:45.731Z,17.20
2022-08-26T02:36:23.001Z,17.20
2022-08-26T02:38:55.579Z,17.21
2022-08-26T02:41:28.819Z,17.20
2022-08-26T02:44:01.411Z,17.18
2022-08-26T02:46:33.712Z,17.16
2022-08-26T02:49:09.751Z,17.12
2022-08-26T02:51:42.458Z,17.10
2022-08-26T02:54:15.927Z,17.09
2022-08-26T02:56:49.022Z,17.09
2022-08-26T02:59:24.477Z,17.08
2022-08-26T03:01:57.444Z,17.08
2022-08-26T03:04:33.466Z,17.09
2022-08-26T03:07:06.472Z,17.08
2022-08-26T03:09:38.811Z,17.06
2022-08-26T03:12:12.591Z,17.06
2022-08-26T03:14:46.241Z,17.06
2022-08-26T03:17:18.639Z,17.05
2022-08-26T03:19:57.036Z,17.04
2022-08-26T03:22:30.321Z,17.02
2022-08-26T03:25:03.461Z,16.96
2022-08-26T03:27:35.859Z,16.94
2022-08-26T03:30:29.754Z,16.91
2022-08-26T03:33:00.527Z,16.89
2022-08-26T03:35:33.832Z,16.81
2022-08-26T03:38:08.538Z,16.83
2022-08-26T03:40:42.798Z,16.79
2022-08-26T03:43:17.589Z,16.81
2022-08-26T03:45:51.927Z,16.80
2022-08-26T03:48:25.935Z,16.74
2022-08-26T03:50:58.014Z,16.74
2022-08-26T03:53:31.009Z,16.69
2022-08-26T03:56:03.550Z,16.73
2022-08-26T03:58:37.098Z,16.76
2022-08-26T04:01:10.795Z,16.80
2022-08-26T04:04:15.415Z,16.81
2022-08-26T04:06:48.181Z,16.80
2022-08-26T04:09:23.076Z,16.82
2022-08-26T04:12:01.661Z,16.83
2022-08-26T04:14:37.842Z,16.84
2022-08-26T04:17:11.997Z,16.87
2022-08-26T04:19:44.341Z,16.91
2022-08-26T04:22:16.682Z,16.93
2022-08-26T04:24:57.229Z,16.96
2022-08-26T04:27:29.881Z,16.99
2022-08-26T04:30:03.018Z,17.01
2022-08-26T04:32:35.928Z,17.05
2022-08-26T04:35:10.070Z,17.08
2022-08-26T04:37:44.231Z,17.11
2022-08-26T04:40:16.972Z,17.16
2022-08-26T04:42:49.272Z,17.20
2022-08-26T04:45:22.819Z,17.25
2022-08-26T04:47:58.195Z,17.28
2022-08-26T04:50:31.020Z,17.35
2022-08-26T04:53:04.503Z,17.43
2022-08-26T04:55:42.669Z,17.51
2022-08-26T04:58:20.209Z,17.59
2022-08-26T05:00:54.488Z,17.66
2022-08-26T05:03:30.364Z,17.72
2022-08-26T05:06:07.019Z,17.82
2022-08-26T05:08:42.201Z,17.87
2022-08-26T05:11:15.743Z,17.98
2022-08-26T05:13:48.000Z,18.08
2022-08-26T05:16:20.722Z,18.19
2022-08-26T05:18:55.143Z,18.29
2022-08-26T05:21:29.549Z,18.45
2022-08-26T05:24:06.599Z,18.61
2022-08-26T05:26:38.891Z,18.80
2022-08-26T05:29:12.489Z,18.94
2022-08-26T05:31:44.866Z,19.08
2022-08-26T05:34:17.799Z,19.23
2022-08-26T05:36:54.029Z,19.36
2022-08-26T05:39:27.210Z,19.50
2022-08-26T05:41:59.938Z,19.60
2022-08-26T05:44:35.887Z,19.70
2022-08-26T05:47:26.042Z,19.94
2022-08-26T05:49:58.589Z,20.07
2022-08-26T05:52:31.512Z,20.17
2022-08-26T05:55:04.663Z,20.32
2022-08-26T05:57:40.460Z,20.42
2022-08-26T06:00:18.409Z,20.59
2022-08-26T06:02:51.442Z,20.66
2022-08-26T06:05:22.149Z,20.81
2022-08-26T06:08:14.531Z,20.83
2022-08-26T06:10:52.831Z,21.00
2022-08-26T06:13:31.867Z,21.14
2022-08-26T06:16:07.673Z,21.17
2022-08-26T06:18:42.625Z,21.30
2022-08-26T06:21:21.221Z,21.38
2022-08-26T06:24:12.944Z,21.58
2022-08-26T06:26:51.662Z,21.73
2022-08-26T06:29:26.124Z,21.79
2022-08-26T06:32:00.168Z,21.89
2022-08-26T06:34:33.002Z,22.01
2022-08-26T06:37:07.051Z,22.15
2022-08-26T06:39:41.529Z,22.22
2022-08-26T06:42:13.892Z,22.30
2022-08-26T06:44:47.741Z,22.32
2022-08-26T06:47:39.104Z,22.42
2022-08-26T06:50:37.749Z,22.55
2022-08-26T06:53:35.464Z,22.66
2022-08-26T06:56:46.179Z,22.78
2022-08-26T06:59:47.176Z,22.88
2022-08-26T07:02:47.018Z,23.04
2022-08-26T07:05:19.838Z,23.16
2022-08-26T07:08:11.585Z,23.27
2022-08-26T07:10:45.399Z,23.31
2022-08-26T07:13:37.978Z,23.31
2022-08-26T07:16:25.639Z,23.54
2022-08-26T07:19:29.825Z,23.73
2022-08-26T07:22:30.261Z,23.85
2022-08-26T07:25:28.769Z,23.95
2022-08-26T07:28:01.857Z,24.06
2022-08-26T07:30:36.075Z,24.22
2022-08-26T07:33:09.082Z,24.25
2022-08-26T07:35:44.844Z,24.36
2022-08-26T07:38:17.230Z,24.49
2022-08-26T07:40:49.639Z,24.55
2022-08-26T07:43:20.739Z,24.69
2022-08-26T07:45:56.329Z,24.72
2022-08-26T07:48:29.152Z,24.73
2022-08-26T07:51:03.539Z,24.88
2022-08-26T07:53:38.259Z,24.94
2022-08-26T07:56:11.468Z,25.17
2022-08-26T07:58:50.872Z,25.21
2022-08-26T08:01:25.913Z,25.05
2022-08-26T08:03:59.570Z,25.17
2022-08-26T08:06:37.871Z,25.15
2022-08-26T08:09:11.307Z,25.30
2022-08-26T08:11:44.051Z,25.37
2022-08-26T08:14:18.641Z,25.43
2022-08-26T08:16:55.063Z,25.56
2022-08-26T08:19:36.487Z,25.72
2022-08-26T08:22:17.436Z,25.73
2022-08-26T08:24:53.125Z,25.82
2022-08-26T08:27:26.091Z,25.96
2022-08-26T08:29:58.781Z,26.11
2022-08-26T08:32:31.521Z,26.05
2022-08-26T08:35:02.536Z,26.22
2022-08-26T08:37:43.941Z,26.23
2022-08-26T08:40:19.498Z,26.29
2022-08-26T08:42:54.580Z,26.14
2022-08-26T08:45:36.650Z,26.07
2022-08-26T08:48:16.031Z,26.39
2022-08-26T08:50:51.510Z,26.44
2022-08-26T08:53:32.431Z,26.24
2022-08-26T08:56:14.110Z,26.33
2022-08-26T08:58:56.751Z,26.58
2022-08-26T09:01:52.414Z,26.74
2022-08-26T09:04:47.289Z,26.76
2022-08-26T09:07:25.417Z,26.73
2022-08-26T09:10:01.330Z,26.87
2022-08-26T09:12:35.879Z,26.68
2022-08-26T09:15:18.300Z,26.69
2022-08-26T09:17:58.621Z,26.52
2022-08-26T09:20:45.524Z,26.55
2022-08-26T09:23:19.526Z,26.66
2022-08-26T09:25:56.843Z,26.83
2022-08-26T09:28:31.619Z,26.94
2022-08-26T09:31:13.880Z,27.06
2022-08-26T09:33:46.621Z,27.04
2022-08-26T09:36:26.502Z,26.92
2022-08-26T09:38:58.970Z,27.20
2022-08-26T09:41:33.909Z,27.24
2022-08-26T09:44:29.623Z,27.46
2022-08-26T09:47:05.699Z,27.58
2022-08-26T09:49:40.251Z,27.39
2022-08-26T09:52:22.461Z,27.38
2022-08-26T09:55:07.282Z,27.45
2022-08-26T09:57:50.089Z,27.53
2022-08-26T10:00:33.810Z,27.56
2022-08-26T10:03:09.073Z,27.69
2022-08-26T10:05:45.052Z,27.72
2022-08-26T10:08:30.599Z,27.82
2022-08-26T10:11:07.209Z,27.66
2022-08-26T10:13:42.549Z,27.80
2022-08-26T10:16:20.531Z,27.67
2022-08-26T10:19:00.693Z,27.94
2022-08-26T10:21:38.531Z,28.00
2022-08-26T10:24:13.241Z,28.03
2022-08-26T10:26:53.683Z,28.00
2022-08-26T10:29:31.384Z,28.25
2022-08-26T10:32:07.520Z,28.39
2022-08-26T10:34:48.011Z,28.32
2022-08-26T10:37:25.509Z,28.20
2022-08-26T10:40:04.037Z,28.44
2022-08-26T10:42:41.855Z,28.52
2022-08-26T10:45:20.062Z,28.56
2022-08-26T10:47:57.392Z,28.62
2022-08-26T10:50:34.122Z,28.49
2022-08-26T10:53:15.550Z,28.52
2022-08-26T10:55:56.792Z,28.77
2022-08-26T10:58:55.341Z,28.70
2022-08-26T11:01:43.940Z,28.59
2022-08-26T11:04:30.087Z,28.74
2022-08-26T11:07:43.169Z,28.80
2022-08-26T11:11:02.367Z,28.68
2022-08-26T11:14:02.317Z,28.81
2022-08-26T11:16:45.138Z,28.96
2022-08-26T11:20:08.976Z,29.14
2022-08-26T11:40:42.752Z,29.11
2022-08-26T11:43:26.378Z,29.18
2022-08-26T11:46:12.713Z,29.33
2022-08-26T11:48:47.307Z,29.46
2022-08-26T11:51:27.894Z,29.51
2022-08-26T11:54:16.384Z,29.40
2022-08-26T11:57:14.051Z,29.25
2022-08-26T11:59:47.204Z,29.22
2022-08-26T12:02:21.867Z,29.36
2022-08-26T12:04:56.613Z,29.37
2022-08-26T12:07:31.729Z,29.54
2022-08-26T12:10:08.960Z,29.66
2022-08-26T12:12:42.874Z,29.54
2022-08-26T12:15:19.260Z,29.45
2022-08-26T12:17:54.581Z,29.49
2022-08-26T12:20:48.639Z,29.55
2022-08-26T12:23:31.389Z,29.67
2022-08-26T12:26:07.279Z,29.68
2022-08-26T12:28:47.122Z,29.52
2022-08-26T12:31:27.042Z,29.50
2022-08-26T12:34:02.737Z,29.61
2022-08-26T12:36:39.282Z,29.81
2022-08-26T12:39:15.060Z,29.96
2022-08-26T12:41:53.732Z,29.93
2022-08-26T12:44:53.826Z,29.93
2022-08-26T12:47:41.958Z,29.80
2022-08-26T12:50:24.019Z,29.67
2022-08-26T12:53:01.043Z,29.67
2022-08-26T12:55:44.381Z,29.65
2022-08-26T12:58:25.240Z,29.78
2022-08-26T13:01:00.487Z,29.84
2022-08-26T13:03:43.788Z,29.71
2022-08-26T13:06:26.175Z,29.63
2022-08-26T13:09:02.316Z,29.63
2022-08-26T13:11:37.121Z,29.53
2022-08-26T13:14:21.031Z,29.68
2022-08-26T13:17:03.480Z,29.69
2022-08-26T13:19:36.380Z,29.66
2022-08-26T13:22:09.432Z,29.73
2022-08-26T13:24:44.962Z,29.65
2022-08-26T13:27:20.931Z,29.68
2022-08-26T13:29:57.494Z,29.55
2022-08-26T13:32:32.090Z,29.59
2022-08-26T13:35:06.002Z,29.77
2022-08-26T13:37:38.611Z,29.63
2022-08-26T13:40:15.429Z,29.67
2022-08-26T13:42:49.501Z,29.73
2022-08-26T13:45:22.280Z,29.86
2022-08-26T13:47:54.705Z,30.06
2022-08-26T13:50:28.934Z,30.12
2022-08-26T13:53:01.711Z,30.20
2022-08-26T13:55:34.265Z,30.39
2022-08-26T13:58:06.664Z,30.41
2022-08-26T14:00:42.629Z,30.14
2022-08-26T14:03:16.594Z,30.09
2022-08-26T14:05:49.209Z,30.11
2022-08-26T14:08:26.250Z,30.02
2022-08-26T14:10:58.916Z,30.02
2022-08-26T14:13:31.709Z,29.91
2022-08-26T14:16:07.183Z,29.88
2022-08-26T14:18:46.185Z,29.91
2022-08-26T14:21:21.742Z,29.87
2022-08-26T14:24:00.292Z,29.72
2022-08-26T14:26:33.500Z,29.71
2022-08-26T14:29:06.465Z,29.73
2022-08-26T14:31:40.036Z,29.69
2022-08-26T14:34:14.712Z,29.77
2022-08-26T14:36:47.188Z,29.80
2022-08-26T14:39:19.672Z,29.70
2022-08-26T14:41:56.537Z,29.65
2022-08-26T14:44:34.069Z,29.68
2022-08-26T14:47:08.600Z,29.54
2022-08-26T14:49:41.163Z,29.52
2022-08-26T14:52:13.719Z,29.49
2022-08-26T14:54:46.235Z,29.47
2022-08-26T14:57:17.317Z,29.44
2022-08-26T14:59:50.673Z,29.27
2022-08-26T15:02:33.614Z,29.26
2022-08-26T15:05:08.750Z,29.23
2022-08-26T15:07:45.031Z,29.25
2022-08-26T15:10:19.373Z,29.27
2022-08-26T15:12:51.864Z,29.28
2022-08-26T15:15:25.840Z,29.15
2022-08-26T15:17:58.110Z,29.15
2022-08-26T15:23:09.077Z,29.27
2022-08-26T15:25:43.922Z,29.29
2022-08-26T15:28:16.831Z,29.23
2022-08-26T15:30:49.428Z,29.23
2022-08-26T15:33:22.190Z,29.21
2022-08-26T15:35:52.719Z,29.24
2022-08-26T15:38:24.949Z,29.15
2022-08-26T15:41:00.999Z,29.14
2022-08-26T15:43:35.772Z,29.01
2022-08-26T15:46:12.047Z,28.91
2022-08-26T15:48:45.141Z,28.82
2022-08-26T15:51:26.192Z,28.74
2022-08-26T15:53:59.301Z,28.63
2022-08-26T15:56:34.458Z,28.54
2022-08-26T15:59:08.759Z,28.49
2022-08-26T16:01:41.394Z,28.47
2022-08-26T16:04:12.122Z,28.42
2022-08-26T16:06:47.831Z,28.30
2022-08-26T16:09:24.480Z,28.29
2022-08-26T16:11:57.711Z,28.23
2022-08-26T16:14:30.652Z,28.18
2022-08-26T16:17:03.967Z,28.12
2022-08-26T16:19:36.874Z,27.97
2022-08-26T16:22:10.420Z,28.01
2022-08-26T16:24:43.570Z,28.03
2022-08-26T16:27:14.410Z,28.01
2022-08-26T16:29:49.461Z,27.86
2022-08-26T16:32:21.812Z,27.74
2022-08-26T16:34:56.448Z,27.66
2022-08-26T16:37:33.712Z,27.61
2022-08-26T16:40:13.296Z,27.52
2022-08-26T16:42:46.121Z,27.43
2022-08-26T16:45:17.024Z,27.44
2022-08-26T16:47:49.684Z,27.31
2022-08-26T16:50:25.109Z,27.28
2022-08-26T16:52:59.462Z,27.29
2022-08-26T16:55:35.789Z,27.25
2022-08-26T16:58:14.942Z,27.24
2022-08-26T17:00:47.681Z,27.18
2022-08-26T17:03:21.969Z,27.11
2022-08-26T17:05:56.554Z,26.80
2022-08-26T17:08:29.391Z,26.51
2022-08-26T17:11:02.611Z,26.18
2022-08-26T17:13:36.209Z,25.88
2022-08-26T17:16:11.942Z,25.49
2022-08-26T17:18:44.532Z,25.23
2022-08-26T17:21:16.969Z,25.03
2022-08-26T17:23:49.832Z,24.72
2022-08-26T17:26:22.549Z,24.66
2022-08-26T17:28:55.371Z,24.44
2022-08-26T17:31:26.774Z,24.22
2022-08-26T17:33:59.469Z,23.83
2022-08-26T17:36:30.023Z,23.75
2022-08-26T17:39:02.271Z,23.52
2022-08-26T17:41:37.586Z,23.39
2022-08-26T17:44:10.564Z,23.30
2022-08-26T17:46:41.031Z,23.17
2022-08-26T17:49:13.259Z,22.93
2022-08-26T17:51:47.101Z,22.86
2022-08-26T17:54:19.559Z,22.73
2022-08-26T17:56:55.004Z,22.58
2022-08-26T17:59:30.714Z,22.46
2022-08-26T18:02:03.541Z,22.34
2022-08-26T18:04:35.889Z,22.19
2022-08-26T18:07:08.541Z,22.05
2022-08-26T18:09:42.717Z,21.85
2022-08-26T18:12:16.111Z,21.70
2022-08-26T18:14:48.591Z,21.62
2022-08-26T18:17:21.291Z,21.66
2022-08-26T18:19:54.811Z,21.56
2022-08-26T18:22:28.124Z,21.48
2022-08-26T18:25:01.839Z,21.45
2022-08-26T18:27:36.351Z,21.47
2022-08-26T18:30:16.660Z,21.39
2022-08-26T18:32:50.219Z,21.27
2022-08-26T18:35:22.871Z,21.22
2022-08-26T18:37:55.406Z,21.15
2022-08-26T18:40:28.158Z,21.05
2022-08-26T18:42:59.032Z,21.05
2022-08-26T18:45:32.212Z,20.92
2022-08-26T18:48:08.223Z,20.86
2022-08-26T18:50:47.221Z,20.98
2022-08-26T18:53:21.332Z,20.96
2022-08-26T18:55:54.218Z,20.87
2022-08-26T18:58:25.882Z,20.81
2022-08-26T19:01:00.273Z,20.69
2022-08-26T19:03:39.420Z,20.65
2022-08-26T19:06:22.271Z,20.66
2022-08-26T19:08:57.981Z,20.60
2022-08-26T19:11:37.248Z,20.58
2022-08-26T19:14:13.421Z,20.62
2022-08-26T19:16:48.430Z,20.52
2022-08-26T19:19:25.440Z,20.56
2022-08-26T19:21:59.805Z,20.55
2022-08-26T19:24:36.197Z,20.55
2022-08-26T19:27:11.723Z,20.49
2022-08-26T19:29:49.043Z,20.49
2022-08-26T19:32:24.622Z,20.52
2022-08-26T19:34:57.385Z,20.41
2022-08-26T19:37:38.140Z,20.32
2022-08-26T19:40:12.886Z,20.30
2022-08-26T19:42:46.505Z,20.24
2022-08-26T19:45:25.143Z,20.28
2022-08-26T19:47:59.282Z,20.23
2022-08-26T19:50:37.986Z,20.33
2022-08-26T19:53:19.551Z,20.40
2022-08-26T19:55:56.142Z,20.45
2022-08-26T19:58:28.702Z,20.67
2022-08-26T20:01:01.209Z,20.70
2022-08-26T20:03:34.048Z,20.78
2022-08-26T20:06:10.725Z,20.81
2022-08-26T20:08:44.612Z,20.79
2022-08-26T20:11:19.046Z,20.69
2022-08-26T20:13:51.650Z,20.61
2022-08-26T20:16:24.293Z,20.49
2022-08-26T20:19:14.464Z,20.37
2022-08-26T20:21:47.365Z,20.16
2022-08-26T20:24:21.340Z,20.08
2022-08-26T20:26:54.102Z,20.10
2022-08-26T20:29:27.780Z,20.15
2022-08-26T20:32:00.631Z,20.11
2022-08-26T20:34:35.591Z,20.10
2022-08-26T20:37:08.784Z,19.96
2022-08-26T20:39:39.551Z,19.91
2022-08-26T20:42:19.795Z,19.92
2022-08-26T20:44:54.374Z,19.98
2022-08-26T20:47:27.382Z,20.05
2022-08-26T20:50:09.939Z,20.03
2022-08-26T20:52:44.220Z,19.95
2022-08-26T20:55:18.890Z,19.82
2022-08-26T20:57:51.897Z,19.71
2022-08-26T21:00:26.560Z,19.59
2022-08-26T21:03:02.212Z,19.52
2022-08-26T21:05:38.790Z,19.45
2022-08-26T21:08:12.984Z,19.36
2022-08-26T21:10:45.851Z,19.29
2022-08-26T21:13:18.249Z,19.19
2022-08-26T21:15:51.105Z,19.16
2022-08-26T21:18:23.413Z,19.11
2022-08-26T21:20:56.151Z,19.09
2022-08-26T21:23:29.369Z,19.10
2022-08-26T21:26:07.642Z,19.07
2022-08-26T21:28:42.889Z,19.04
2022-08-26T21:31:19.620Z,18.99
2022-08-26T21:33:52.351Z,18.99
2022-08-26T21:36:25.329Z,18.98
2022-08-26T21:39:00.249Z,18.97
2022-08-26T21:41:32.641Z,18.93
2022-08-26T21:44:05.460Z,18.87
2022-08-26T21:46:38.591Z,18.87
2022-08-26T21:49:13.951Z,18.85
2022-08-26T21:51:49.469Z,18.85
2022-08-26T21:54:22.093Z,18.82
2022-08-26T21:56:53.271Z,18.79
2022-08-26T21:59:25.672Z,18.70
2022-08-26T22:01:59.670Z,18.70
2022-08-26T22:04:33.029Z,18.67
2022-08-26T22:07:07.610Z,18.66
2022-08-26T22:09:41.567Z,18.65
2022-08-26T22:12:18.649Z,18.66
2022-08-26T22:14:51.043Z,18.72
2022-08-26T22:17:23.639Z,18.78
2022-08-26T22:19:56.053Z,18.73
2022-08-26T22:22:30.360Z,18.66
2022-08-26T22:25:04.650Z,18.60
2022-08-26T22:27:40.343Z,18.52
2022-08-26T22:30:16.309Z,18.46
2022-08-26T22:32:50.721Z,18.42
2022-08-26T22:35:29.371Z,18.42
2022-08-26T22:38:03.765Z,18.42
2022-08-26T22:40:37.082Z,18.41
2022-08-26T22:43:08.048Z,18.41
2022-08-26T22:45:44.197Z,18.31
2022-08-26T22:48:19.289Z,18.33
2022-08-26T22:50:53.318Z,18.29
2022-08-26T22:53:27.683Z,18.27
2022-08-26T22:56:00.660Z,18.28
2022-08-26T22:58:37.879Z,18.25
2022-08-26T23:01:26.211Z,18.17
2022-08-26T23:03:58.744Z,18.12
2022-08-26T23:06:31.150Z,18.07
2022-08-26T23:09:03.569Z,18.05
2022-08-26T23:11:42.325Z,18.00
2022-08-26T23:14:14.797Z,18.02
2022-08-26T23:16:47.972Z,18.03
2022-08-26T23:19:21.118Z,18.01
2022-08-26T23:21:53.769Z,17.95
2022-08-26T23:24:26.073Z,17.94
2022-08-26T23:26:58.800Z,17.93
2022-08-26T23:29:31.320Z,17.89
2022-08-26T23:32:05.925Z,17.87
2022-08-26T23:34:55.442Z,17.79
2022-08-26T23:37:31.911Z,17.67
2022-08-26T23:40:06.240Z,17.56
2022-08-26T23:42:38.874Z,17.58
2022-08-26T23:45:14.210Z,17.63
2022-08-26T23:47:47.031Z,17.71
2022-08-26T23:50:20.120Z,17.81
2022-08-26T23:53:11.602Z,17.92
2022-08-26T23:55:43.649Z,17.99
2022-08-26T23:58:16.737Z,18.08
